createdAt,value
2022-07-27T00:01:54.318Z,5.43
2022-07-27T00:04:12.303Z,5.35
2022-07-27T00:06:30.891Z,5.95
2022-07-27T00:08:48.938Z,6.13
2022-07-27T00:11:07.079Z,6.15
2022-07-27T00:13:24.923Z,5.88
2022-07-27T00:15:43.684Z,5.22
2022-07-27T00:18:01.573Z,5.90
2022-07-27T00:20:27.015Z,6.03
2022-07-27T00:22:45.336Z,5.88
2022-07-27T00:25:03.142Z,6.20
2022-07-27T00:27:21.302Z,5.78
2022-07-27T00:29:39.518Z,5.40
2022-07-27T00:31:57.725Z,5.50
2022-07-27T00:34:17.562Z,6.00
2022-07-27T00:36:35.584Z,6.10
2022-07-27T00:38:53.564Z,6.07
2022-07-27T00:41:11.737Z,5.65
2022-07-27T00:43:29.918Z,6.20
2022-07-27T00:45:47.803Z,5.68
2022-07-27T00:48:05.900Z,6.10
2022-07-27T00:50:23.766Z,5.93
2022-07-27T00:52:42.105Z,6.70
2022-07-27T00:55:00.173Z,6.15
2022-07-27T00:57:18.931Z,5.75
2022-07-27T00:59:36.942Z,5.78
2022-07-27T01:01:55.331Z,5.90
2022-07-27T01:04:14.071Z,6.28
2022-07-27T01:06:32.699Z,6.00
2022-07-27T01:08:50.883Z,5.78
2022-07-27T01:11:09.328Z,5.90
2022-07-27T01:13:27.364Z,5.97
2022-07-27T01:15:45.228Z,5.88
2022-07-27T01:18:03.063Z,6.03
2022-07-27T01:20:20.897Z,6.13
2022-07-27T01:22:39.124Z,6.15
2022-07-27T01:24:57.374Z,6.13
2022-07-27T01:27:15.683Z,6.50
2022-07-27T01:29:33.881Z,5.85
2022-07-27T01:31:52.647Z,5.72
2022-07-27T01:34:10.946Z,6.05
2022-07-27T01:36:29.635Z,5.57
2022-07-27T01:38:48.188Z,5.50
2022-07-27T01:41:06.106Z,6.22
2022-07-27T01:43:24.256Z,5.78
2022-07-27T01:45:42.088Z,5.80
2022-07-27T01:48:00.452Z,5.35
2022-07-27T01:50:18.425Z,5.90
2022-07-27T01:52:36.687Z,5.78
2022-07-27T01:54:54.720Z,5.50
2022-07-27T01:57:12.615Z,5.47
2022-07-27T01:59:30.442Z,5.63
2022-07-27T02:01:48.357Z,5.57
2022-07-27T02:04:06.203Z,5.65
2022-07-27T02:06:24.457Z,6.10
2022-07-27T02:08:42.727Z,5.60
2022-07-27T02:11:18.990Z,6.03
2022-07-27T02:13:37.029Z,5.60
2022-07-27T02:15:55.185Z,5.90
2022-07-27T02:18:33.299Z,5.53
2022-07-27T02:20:51.692Z,5.78
2022-07-27T02:23:10.280Z,6.63
2022-07-27T02:25:32.003Z,5.50
2022-07-27T02:27:51.165Z,6.07
2022-07-27T02:30:09.784Z,5.80
2022-07-27T02:32:27.693Z,5.85
2022-07-27T02:34:45.691Z,5.88
2022-07-27T02:37:03.641Z,5.57
2022-07-27T02:39:21.484Z,5.47
2022-07-27T02:41:39.498Z,5.45
2022-07-27T02:43:57.376Z,5.18
2022-07-27T02:46:15.244Z,5.40
2022-07-27T02:48:34.063Z,5.13
2022-07-27T02:50:52.324Z,5.03
2022-07-27T02:53:10.177Z,5.28
2022-07-27T02:55:28.168Z,5.13
2022-07-27T02:57:46.102Z,5.47
2022-07-27T03:00:05.969Z,5.63
2022-07-27T03:02:24.050Z,5.78
2022-07-27T03:04:42.145Z,5.70
2022-07-27T03:07:00.086Z,5.55
2022-07-27T03:09:18.016Z,5.25
2022-07-27T03:11:35.837Z,5.25
2022-07-27T03:13:53.806Z,5.30
2022-07-27T03:16:11.749Z,5.00
2022-07-27T03:18:29.873Z,5.18
2022-07-27T03:20:47.949Z,5.32
2022-07-27T03:23:05.691Z,5.63
2022-07-27T03:25:24.032Z,5.40
2022-07-27T03:27:41.853Z,5.30
2022-07-27T03:30:00.050Z,5.30
2022-07-27T03:32:18.555Z,5.35
2022-07-27T03:34:36.433Z,4.97
2022-07-27T03:36:54.401Z,5.28
2022-07-27T03:39:14.069Z,5.18
2022-07-27T03:41:32.559Z,5.97
2022-07-27T03:43:50.383Z,6.07
2022-07-27T03:46:08.310Z,5.55
2022-07-27T03:48:27.342Z,5.10
2022-07-27T03:50:45.184Z,5.82
2022-07-27T03:53:03.018Z,5.70
2022-07-27T03:55:21.696Z,5.13
2022-07-27T03:57:39.512Z,5.75
2022-07-27T03:59:57.503Z,5.85
2022-07-27T04:02:15.320Z,5.45
2022-07-27T04:04:33.451Z,5.85
2022-07-27T04:06:51.639Z,5.38
2022-07-27T04:09:09.584Z,5.80
2022-07-27T04:11:29.609Z,5.65
2022-07-27T04:13:51.066Z,6.25
2022-07-27T04:16:08.890Z,5.63
2022-07-27T04:18:26.928Z,5.85
2022-07-27T04:20:45.088Z,5.40
2022-07-27T04:23:02.923Z,5.90
2022-07-27T04:25:21.218Z,5.38
2022-07-27T04:27:39.480Z,5.78
2022-07-27T04:29:57.437Z,6.10
2022-07-27T04:32:16.053Z,5.72
2022-07-27T04:34:33.842Z,5.47
2022-07-27T04:36:51.853Z,5.95
2022-07-27T04:39:10.004Z,5.88
2022-07-27T04:41:30.154Z,5.50
2022-07-27T04:43:48.457Z,5.18
2022-07-27T04:46:10.510Z,5.63
2022-07-27T04:48:32.956Z,4.68
2022-07-27T04:50:50.879Z,4.85
2022-07-27T04:53:09.028Z,5.18
2022-07-27T04:55:27.011Z,4.82
2022-07-27T04:57:44.808Z,4.68
2022-07-27T05:00:02.980Z,4.82
2022-07-27T05:02:21.412Z,4.60
2022-07-27T05:04:39.372Z,4.75
2022-07-27T05:06:57.667Z,5.13
2022-07-27T05:09:15.624Z,5.22
2022-07-27T05:11:40.412Z,4.75
2022-07-27T05:14:08.859Z,4.57
2022-07-27T05:16:29.135Z,4.90
2022-07-27T05:18:47.518Z,4.22
2022-07-27T05:21:05.916Z,4.45
2022-07-27T05:23:23.883Z,4.65
2022-07-27T05:25:42.278Z,4.28
2022-07-27T05:28:00.167Z,4.82
2022-07-27T05:30:17.957Z,4.20
2022-07-27T05:32:38.401Z,4.47
2022-07-27T05:34:56.405Z,4.15
2022-07-27T05:37:14.337Z,3.75
2022-07-27T05:39:32.527Z,4.00
2022-07-27T05:41:56.481Z,3.70
2022-07-27T05:46:34.156Z,3.95
2022-07-27T05:48:52.078Z,4.15
2022-07-27T05:51:09.919Z,4.53
2022-07-27T05:53:27.886Z,3.90
2022-07-27T05:55:59.250Z,4.07
2022-07-27T05:58:17.884Z,3.40
2022-07-27T06:00:41.407Z,3.88
2022-07-27T06:02:59.314Z,3.97
2022-07-27T06:05:17.449Z,3.53
2022-07-27T06:07:54.527Z,4.05
2022-07-27T06:10:12.369Z,3.38
2022-07-27T06:12:30.605Z,3.85
2022-07-27T06:14:50.761Z,3.78
2022-07-27T06:17:09.718Z,3.40
2022-07-27T06:19:36.003Z,3.40
2022-07-27T06:21:55.105Z,4.05
2022-07-27T06:24:13.052Z,3.35
2022-07-27T06:26:31.025Z,3.88
2022-07-27T06:28:49.041Z,3.47
2022-07-27T06:31:06.925Z,3.78
2022-07-27T06:33:31.925Z,3.78
2022-07-27T06:35:49.810Z,3.28
2022-07-27T06:38:08.295Z,3.50
2022-07-27T06:40:29.729Z,3.92
2022-07-27T06:42:47.866Z,3.42
2022-07-27T06:45:06.768Z,3.38
2022-07-27T06:47:28.778Z,3.70
2022-07-27T06:49:46.947Z,3.63
2022-07-27T06:52:05.261Z,3.50
2022-07-27T06:54:23.669Z,3.67
2022-07-27T06:56:41.878Z,3.33
2022-07-27T06:58:59.870Z,3.40
2022-07-27T07:01:19.694Z,3.95
2022-07-27T07:03:37.632Z,3.70
2022-07-27T07:05:55.657Z,3.83
2022-07-27T07:08:15.090Z,3.70
2022-07-27T07:10:40.213Z,3.20
2022-07-27T07:13:20.688Z,3.58
2022-07-27T07:15:40.021Z,3.63
2022-07-27T07:17:57.992Z,3.40
2022-07-27T07:20:34.278Z,3.63
2022-07-27T07:22:52.734Z,3.70
2022-07-27T07:25:16.275Z,3.20
2022-07-27T07:27:35.459Z,3.30
2022-07-27T07:30:04.811Z,4.13
2022-07-27T07:32:27.781Z,3.20
2022-07-27T07:35:21.338Z,3.30
2022-07-27T07:37:53.240Z,3.55
2022-07-27T07:40:41.209Z,3.65
2022-07-27T07:42:50.384Z,3.45
2022-07-27T07:45:16.123Z,3.90
2022-07-27T07:47:38.762Z,4.00
2022-07-27T07:50:08.775Z,4.00
2022-07-27T07:52:35.235Z,4.22
2022-07-27T07:55:12.448Z,3.80
2022-07-27T07:57:33.574Z,4.43
2022-07-27T07:59:51.368Z,3.90
2022-07-27T08:02:09.285Z,4.18
2022-07-27T08:04:27.554Z,4.00
2022-07-27T08:06:46.528Z,3.60
2022-07-27T08:09:04.606Z,3.60
2022-07-27T08:11:22.458Z,4.03
2022-07-27T08:13:40.558Z,4.05
2022-07-27T08:16:21.882Z,3.83
2022-07-27T08:18:40.212Z,4.10
2022-07-27T08:20:58.433Z,3.90
2022-07-27T08:23:16.621Z,3.40
2022-07-27T08:26:07.930Z,3.78
2022-07-27T08:31:26.496Z,3.75
2022-07-27T08:34:52.493Z,4.10
2022-07-27T08:37:15.224Z,3.38
2022-07-27T08:45:21.521Z,3.65
2022-07-27T08:47:41.673Z,3.80
2022-07-27T08:50:04.051Z,3.50
2022-07-27T08:52:22.666Z,4.10
2022-07-27T08:54:41.617Z,3.78
2022-07-27T08:56:59.652Z,3.75
2022-07-27T08:59:20.057Z,3.38
2022-07-27T09:01:54.586Z,3.40
2022-07-27T09:04:33.799Z,3.72
2022-07-27T09:06:54.082Z,3.75
2022-07-27T09:09:37.489Z,3.85
2022-07-27T09:12:09.308Z,3.90
2022-07-27T09:14:31.415Z,4.05
2022-07-27T09:19:29.252Z,3.80
2022-07-27T09:21:48.202Z,3.60
2022-07-27T09:24:23.555Z,3.90
2022-07-27T09:26:49.816Z,3.65
2022-07-27T09:29:15.479Z,3.92
2022-07-27T09:31:34.429Z,3.63
2022-07-27T09:33:54.110Z,3.88
2022-07-27T09:36:12.944Z,4.00
2022-07-27T09:38:30.836Z,4.10
2022-07-27T09:40:50.856Z,4.15
2022-07-27T09:44:12.081Z,3.83
2022-07-27T09:45:51.887Z,3.83
2022-07-27T09:48:11.035Z,4.30
2022-07-27T09:50:35.253Z,4.22
2022-07-27T09:52:53.575Z,4.30
2022-07-27T09:55:11.666Z,4.38
2022-07-27T09:57:29.596Z,4.22
2022-07-27T09:59:47.868Z,5.25
2022-07-27T10:02:06.468Z,5.00
2022-07-27T10:04:25.171Z,4.53
2022-07-27T10:07:01.575Z,4.25
2022-07-27T10:09:21.696Z,4.60
2022-07-27T10:11:40.582Z,4.72
2022-07-27T10:14:00.457Z,4.43
2022-07-27T10:16:26.162Z,4.13
2022-07-27T10:18:56.712Z,3.97
2022-07-27T10:21:15.034Z,4.75
2022-07-27T10:23:35.027Z,3.90
2022-07-27T10:26:12.872Z,4.43
2022-07-27T10:28:30.946Z,4.13
2022-07-27T10:30:54.288Z,3.80
2022-07-27T10:33:13.851Z,4.32
2022-07-27T10:35:32.824Z,4.72
2022-07-27T10:38:08.187Z,4.10
2022-07-27T10:40:35.589Z,4.47
2022-07-27T10:43:07.546Z,3.88
2022-07-27T10:45:25.403Z,4.18
2022-07-27T10:48:03.592Z,4.30
2022-07-27T10:50:26.530Z,4.10
2022-07-27T10:52:49.367Z,3.85
2022-07-27T10:55:09.118Z,4.07
2022-07-27T10:57:27.674Z,4.20
2022-07-27T11:00:19.735Z,4.30
2022-07-27T11:02:37.970Z,4.15
2022-07-27T11:04:56.418Z,3.83
2022-07-27T11:07:26.835Z,4.13
2022-07-27T11:10:03.674Z,4.05
2022-07-27T11:12:22.230Z,4.18
2022-07-27T11:14:50.703Z,4.25
2022-07-27T11:19:52.273Z,4.13
2022-07-27T11:22:28.201Z,4.38
2022-07-27T11:24:50.948Z,4.00
2022-07-27T11:27:16.942Z,4.50
2022-07-27T11:29:39.995Z,4.32
2022-07-27T11:32:01.947Z,4.20
2022-07-27T11:34:28.243Z,4.47
2022-07-27T11:36:48.521Z,4.05
2022-07-27T11:39:14.458Z,4.68
2022-07-27T11:42:04.711Z,4.20
2022-07-27T11:44:15.072Z,4.07
2022-07-27T11:46:35.114Z,4.40
2022-07-27T11:49:10.551Z,4.35
2022-07-27T11:51:29.246Z,3.85
2022-07-27T11:53:47.264Z,4.35
2022-07-27T11:56:05.328Z,4.35
2022-07-27T11:58:23.928Z,4.43
2022-07-27T12:00:42.439Z,4.32
2022-07-27T12:03:01.466Z,4.05
2022-07-27T12:05:37.429Z,4.35
2022-07-27T12:07:55.317Z,4.47
2022-07-27T12:10:13.647Z,4.03
2022-07-27T12:12:36.023Z,4.63
2022-07-27T12:14:58.124Z,4.10
2022-07-27T12:17:19.169Z,4.00
2022-07-27T12:19:42.798Z,4.50
2022-07-27T12:22:01.497Z,4.63
2022-07-27T12:24:22.107Z,4.40
2022-07-27T12:26:39.861Z,3.90
2022-07-27T12:29:11.468Z,4.15
2022-07-27T12:31:29.685Z,4.55
2022-07-27T12:33:48.352Z,4.25
2022-07-27T12:36:10.302Z,4.78
2022-07-27T12:38:39.811Z,4.77
2022-07-27T12:41:01.497Z,4.50
2022-07-27T12:43:20.860Z,4.13
2022-07-27T12:45:39.835Z,4.28
2022-07-27T12:48:05.086Z,4.63
2022-07-27T12:50:29.382Z,4.05
2022-07-27T12:52:54.654Z,4.25
2022-07-27T12:55:15.727Z,4.88
2022-07-27T12:57:55.299Z,4.75
2022-07-27T13:00:15.918Z,4.60
2022-07-27T13:02:35.451Z,4.57
2022-07-27T13:05:02.234Z,4.00
2022-07-27T13:07:32.674Z,4.25
2022-07-27T13:10:04.601Z,4.38
2022-07-27T13:12:23.046Z,4.60
2022-07-27T13:14:41.026Z,8.32
2022-07-27T13:17:01.490Z,5.47
2022-07-27T13:19:19.599Z,4.57
2022-07-27T13:21:37.441Z,4.28
2022-07-27T13:23:55.699Z,4.97
2022-07-27T13:26:13.555Z,4.00
2022-07-27T13:28:32.772Z,4.43
2022-07-27T13:33:26.435Z,4.25
2022-07-27T13:35:58.998Z,4.60
2022-07-27T13:38:24.830Z,4.22
2022-07-27T13:40:44.344Z,3.88
2022-07-27T13:43:09.199Z,4.20
2022-07-27T13:45:42.957Z,4.15
2022-07-27T13:48:01.750Z,4.47
2022-07-27T13:50:22.323Z,4.60
2022-07-27T13:52:40.189Z,4.32
2022-07-27T13:54:57.922Z,4.82
2022-07-27T13:57:15.695Z,4.30
2022-07-27T13:59:33.527Z,4.32
2022-07-27T14:01:52.804Z,3.97
2022-07-27T14:04:14.063Z,4.25
2022-07-27T14:06:37.537Z,4.40
2022-07-27T14:08:55.311Z,5.05
2022-07-27T14:11:13.510Z,4.15
2022-07-27T14:13:37.698Z,4.47
2022-07-27T14:16:01.803Z,4.07
2022-07-27T14:18:28.475Z,4.60
2022-07-27T14:20:49.592Z,4.50
2022-07-27T14:23:09.158Z,4.50
2022-07-27T14:25:33.543Z,4.10
2022-07-27T14:28:02.970Z,4.57
2022-07-27T14:30:30.172Z,3.80
2022-07-27T14:32:56.673Z,4.55
2022-07-27T14:35:14.538Z,4.00
2022-07-27T14:37:35.110Z,4.18
2022-07-27T14:39:53.077Z,3.63
2022-07-27T14:42:11.190Z,3.70
2022-07-27T14:44:29.074Z,3.65
2022-07-27T14:46:47.398Z,3.60
2022-07-27T14:49:06.687Z,3.60
2022-07-27T14:51:25.135Z,3.97
2022-07-27T14:53:43.460Z,3.40
2022-07-27T14:56:01.445Z,3.50
2022-07-27T14:58:19.826Z,3.78
2022-07-27T15:00:38.576Z,3.97
2022-07-27T15:06:43.048Z,3.83
2022-07-27T15:09:00.947Z,3.60
2022-07-27T15:11:33.681Z,3.63
2022-07-27T15:13:55.476Z,3.78
2022-07-27T15:16:13.559Z,3.70
2022-07-27T15:18:38.054Z,3.97
2022-07-27T15:20:56.660Z,3.70
2022-07-27T15:23:15.342Z,3.33
2022-07-27T15:25:34.017Z,3.50
2022-07-27T15:27:52.024Z,3.55
2022-07-27T15:30:10.169Z,3.50
2022-07-27T15:32:28.061Z,4.57
2022-07-27T15:34:47.916Z,4.43
2022-07-27T15:37:08.006Z,3.80
2022-07-27T15:39:26.156Z,3.38
2022-07-27T15:41:44.215Z,4.20
2022-07-27T15:44:05.020Z,3.90
2022-07-27T15:46:27.499Z,3.85
2022-07-27T15:48:46.211Z,3.95
2022-07-27T15:51:05.046Z,3.70
2022-07-27T15:53:23.424Z,4.15
2022-07-27T15:55:53.267Z,3.90
2022-07-27T15:58:32.739Z,4.03
2022-07-27T16:00:51.905Z,4.55
2022-07-27T16:03:17.288Z,4.43
2022-07-27T16:06:10.203Z,4.97
2022-07-27T16:08:38.258Z,3.95
2022-07-27T16:13:31.047Z,4.28
2022-07-27T16:16:07.970Z,4.38
2022-07-27T16:18:54.732Z,4.45
2022-07-27T16:21:13.190Z,4.43
2022-07-27T16:23:33.527Z,4.28
2022-07-27T16:26:09.209Z,4.05
2022-07-27T16:28:30.971Z,4.45
2022-07-27T16:30:59.725Z,4.23
2022-07-27T16:33:21.062Z,4.20
2022-07-27T16:35:40.124Z,4.30
2022-07-27T16:38:00.140Z,5.07
2022-07-27T16:40:18.297Z,4.82
2022-07-27T16:42:38.091Z,5.07
2022-07-27T16:44:56.862Z,5.03
2022-07-27T16:47:20.898Z,5.28
2022-07-27T16:49:38.891Z,5.03
2022-07-27T16:51:56.909Z,5.05
2022-07-27T16:54:15.078Z,6.35
2022-07-27T16:56:33.412Z,5.53
2022-07-27T16:58:51.407Z,6.38
2022-07-27T17:01:10.374Z,6.43
2022-07-27T17:03:47.268Z,6.47
2022-07-27T17:06:06.797Z,6.15
2022-07-27T17:08:27.763Z,6.20
2022-07-27T17:10:48.210Z,6.60
2022-07-27T17:13:13.350Z,6.28
2022-07-27T17:15:32.360Z,6.65
2022-07-27T17:17:51.209Z,6.72
2022-07-27T17:20:09.433Z,6.32
2022-07-27T17:22:27.844Z,6.22
2022-07-27T17:24:45.817Z,5.80
2022-07-27T17:27:03.967Z,7.05
2022-07-27T17:29:21.914Z,6.90
2022-07-27T17:31:40.153Z,7.05
2022-07-27T17:33:58.522Z,6.70
2022-07-27T17:36:17.595Z,6.80
2022-07-27T17:38:35.501Z,7.05
2022-07-27T17:40:53.585Z,5.97
2022-07-27T17:43:13.198Z,6.07
2022-07-27T17:45:31.371Z,6.20
2022-07-27T17:47:49.344Z,6.40
2022-07-27T17:50:07.513Z,6.47
2022-07-27T17:52:25.629Z,5.90
2022-07-27T17:54:44.312Z,6.88
2022-07-27T17:57:02.467Z,6.72
2022-07-27T17:59:36.970Z,6.57
2022-07-27T18:01:56.866Z,6.70
2022-07-27T18:04:15.197Z,6.05
2022-07-27T18:06:33.160Z,6.50
2022-07-27T18:08:51.335Z,5.90
2022-07-27T18:11:13.452Z,6.38
2022-07-27T18:13:39.088Z,6.25
2022-07-27T18:15:58.841Z,6.82
2022-07-27T18:18:17.573Z,6.13
2022-07-27T18:20:36.128Z,5.80
2022-07-27T18:22:54.398Z,6.22
2022-07-27T18:25:12.356Z,6.60
2022-07-27T18:27:32.555Z,7.00
2022-07-27T18:29:50.423Z,6.43
2022-07-27T18:32:08.581Z,6.72
2022-07-27T18:34:26.366Z,5.80
2022-07-27T18:36:45.943Z,5.93
2022-07-27T18:39:03.782Z,6.18
2022-07-27T18:41:21.864Z,5.97
2022-07-27T18:43:39.973Z,5.70
2022-07-27T18:45:57.823Z,5.88
2022-07-27T18:48:15.847Z,5.90
2022-07-27T18:50:38.924Z,6.28
2022-07-27T18:52:57.863Z,6.15
2022-07-27T18:55:18.857Z,5.78
2022-07-27T18:57:37.121Z,6.90
2022-07-27T18:59:56.110Z,6.47
2022-07-27T19:02:14.853Z,6.32
2022-07-27T19:04:32.979Z,6.30
2022-07-27T19:06:51.413Z,5.95
2022-07-27T19:09:09.980Z,6.72
2022-07-27T19:11:28.104Z,5.63
2022-07-27T19:13:46.298Z,6.05
2022-07-27T19:16:04.219Z,6.30
2022-07-27T19:18:23.860Z,5.63
2022-07-27T19:20:42.875Z,6.03
2022-07-27T19:23:01.090Z,6.05
2022-07-27T19:25:19.093Z,5.82
2022-07-27T19:27:38.299Z,5.85
2022-07-27T19:29:56.723Z,6.15
2022-07-27T19:32:15.537Z,5.80
2022-07-27T19:34:33.539Z,6.22
2022-07-27T19:36:51.877Z,5.78
2022-07-27T19:39:10.330Z,5.75
2022-07-27T19:41:28.342Z,5.88
2022-07-27T19:43:46.163Z,6.10
2022-07-27T19:46:04.274Z,5.57
2022-07-27T19:48:23.505Z,5.45
2022-07-27T19:50:41.957Z,5.75
2022-07-27T19:52:59.824Z,5.75
2022-07-27T19:55:18.014Z,5.63
2022-07-27T19:57:35.832Z,5.28
2022-07-27T19:59:55.353Z,5.68
2022-07-27T20:02:16.818Z,6.32
2022-07-27T20:04:39.661Z,5.32
2022-07-27T20:06:59.228Z,5.38
2022-07-27T20:09:17.191Z,5.57
2022-07-27T20:11:35.084Z,5.40
2022-07-27T20:13:53.229Z,5.53
2022-07-27T20:16:11.862Z,6.22
2022-07-27T20:18:31.182Z,5.00
2022-07-27T20:20:49.159Z,5.25
2022-07-27T20:23:07.520Z,6.35
2022-07-27T20:25:25.577Z,5.47
2022-07-27T20:27:43.763Z,5.65
2022-07-27T20:30:01.588Z,5.28
2022-07-27T20:32:19.459Z,5.85
2022-07-27T20:34:37.398Z,5.28
2022-07-27T20:36:56.239Z,5.07
2022-07-27T20:39:17.553Z,5.60
2022-07-27T20:41:35.892Z,5.35
2022-07-27T20:43:55.266Z,5.57
2022-07-27T20:46:13.848Z,5.40
2022-07-27T20:48:34.188Z,5.75
2022-07-27T20:50:52.145Z,5.35
2022-07-27T20:53:10.092Z,5.03
2022-07-27T20:55:28.626Z,5.53
2022-07-27T20:57:46.498Z,5.47
2022-07-27T21:00:06.662Z,5.65
2022-07-27T21:02:24.938Z,5.25
2022-07-27T21:04:42.760Z,5.15
2022-07-27T21:07:01.035Z,5.35
2022-07-27T21:09:19.671Z,5.53
2022-07-27T21:11:37.529Z,5.72
2022-07-27T21:13:55.700Z,5.35
2022-07-27T21:16:13.944Z,5.38
2022-07-27T21:18:33.119Z,5.60
2022-07-27T21:20:51.006Z,5.32
2022-07-27T21:23:27.730Z,5.10
2022-07-27T21:25:45.553Z,4.75
2022-07-27T21:28:03.981Z,5.00
2022-07-27T21:30:22.198Z,5.05
2022-07-27T21:32:40.314Z,5.55
2022-07-27T21:34:58.494Z,5.40
2022-07-27T21:37:16.619Z,5.13
2022-07-27T21:39:34.789Z,5.35
2022-07-27T21:41:52.997Z,5.57
2022-07-27T21:44:11.848Z,5.57
2022-07-27T21:46:30.470Z,5.72
2022-07-27T21:48:48.871Z,6.13
2022-07-27T21:51:06.994Z,5.60
2022-07-27T21:53:25.267Z,5.53
2022-07-27T21:55:43.379Z,5.60
2022-07-27T21:58:01.597Z,5.38
2022-07-27T22:00:24.899Z,6.07
2022-07-27T22:02:43.139Z,6.20
2022-07-27T22:05:01.185Z,5.75
2022-07-27T22:07:19.685Z,6.00
2022-07-27T22:09:42.331Z,6.05
2022-07-27T22:12:02.092Z,6.47
2022-07-27T22:14:20.130Z,6.18
2022-07-27T22:16:37.997Z,6.45
2022-07-27T22:18:57.060Z,6.40
2022-07-27T22:21:15.088Z,6.68
2022-07-27T22:23:33.050Z,8.25
2022-07-27T22:25:51.580Z,7.75
2022-07-27T22:28:09.358Z,7.38
2022-07-27T22:30:27.348Z,6.57
2022-07-27T22:32:45.276Z,7.13
2022-07-27T22:35:03.351Z,6.47
2022-07-27T22:37:21.526Z,6.70
2022-07-27T22:39:39.350Z,8.27
2022-07-27T22:41:57.574Z,6.80
2022-07-27T22:44:16.285Z,7.20
2022-07-27T22:46:39.327Z,6.15
2022-07-27T22:48:58.126Z,7.00
2022-07-27T22:51:16.718Z,6.65
2022-07-27T22:53:35.150Z,6.20
2022-07-27T22:55:54.370Z,6.28
2022-07-27T22:58:12.988Z,6.18
2022-07-27T23:00:31.169Z,6.47
2022-07-27T23:02:49.109Z,6.28
2022-07-27T23:05:07.307Z,6.50
2022-07-27T23:07:25.536Z,5.68
2022-07-27T23:09:43.444Z,6.43
2022-07-27T23:12:01.667Z,5.88
2022-07-27T23:14:19.962Z,6.25
2022-07-27T23:16:37.891Z,6.93
2022-07-27T23:18:55.785Z,6.07
2022-07-27T23:21:13.712Z,6.55
2022-07-27T23:23:35.888Z,5.63
2022-07-27T23:25:58.900Z,5.88
2022-07-27T23:28:17.520Z,6.10
2022-07-27T23:30:35.373Z,5.90
2022-07-27T23:32:54.923Z,5.85
2022-07-27T23:35:13.169Z,6.70
2022-07-27T23:37:31.394Z,6.30
2022-07-27T23:39:49.576Z,5.90
2022-07-27T23:42:08.151Z,6.20
2022-07-27T23:44:26.231Z,6.30
2022-07-27T23:46:44.948Z,6.20
2022-07-27T23:49:02.904Z,6.32
2022-07-27T23:51:21.093Z,6.32
2022-07-27T23:53:39.318Z,6.07
2022-07-27T23:55:57.824Z,6.20
2022-07-27T23:58:15.746Z,5.60
